Terminal Aerodrome Forecast
Issued by NWS

Home | Current Version | Previous Version | Text Only | Print | Product List | Glossary Off
Versions: 1 2 3 4 5 6 7 8 9 10 11 12 13 14 15 16 17 18 19

000
FTUS43 KGRB 081136
TAFMTW
TAF
KMTW 081136Z 0812/0912 27015G22KT P6SM -SHSN SCT025 OVC035
      TEMPO 0812/0816 2SM -SHSN BKN025
     FM081600 29015G23KT P6SM -SHSN SCT025 OVC035
      TEMPO 0816/0820 2SM -SHSN BKN025
     FM082000 30014G20KT P6SM -SHSN BKN035
     FM082300 30011KT P6SM BKN045=

USA.gov is the U.S. government's official web portal to all federal, state and local government web resources and services.